sensor_id;sensor_type;location;lat;lon;timestamp;temperature;humidity
13494;DHT22;6819;50.886;4.332;2024-03-29T05:24:49;7.30;99.90
13494;DHT22;6819;50.886;4.332;2024-03-29T05:27:15;7.40;99.90
13494;DHT22;6819;50.886;4.332;2024-03-29T05:29:40;7.40;99.90
13494;DHT22;6819;50.886;4.332;2024-03-29T05:32:09;7.40;99.90
13494;DHT22;6819;50.886;4.332;2024-03-29T05:34:35;7.50;99.90
13494;DHT22;6819;50.886;4.332;2024-03-29T05:37:00;7.50;99.90
13494;DHT22;6819;50.886;4.332;2024-03-29T05:39:26;7.50;99.90
13494;DHT22;6819;50.886;4.332;2024-03-29T05:41:51;7.40;99.90
13494;DHT22;6819;50.886;4.332;2024-03-29T05:44:17;7.40;99.90
13494;DHT22;6819;50.886;4.332;2024-03-29T05:46:43;7.50;99.90
13494;DHT22;6819;50.886;4.332;2024-03-29T05:49:09;7.40;99.90
13494;DHT22;6819;50.886;4.332;2024-03-29T05:51:35;7.40;99.90
13494;DHT22;6819;50.886;4.332;2024-03-29T14:19:51;15.30;99.90
13494;DHT22;6819;50.886;4.332;2024-03-29T14:22:17;15.30;99.90
13494;DHT22;6819;50.886;4.332;2024-03-29T14:24:45;15.60;99.90
13494;DHT22;6819;50.886;4.332;2024-03-29T14:27:11;15.90;99.90
13494;DHT22;6819;50.886;4.332;2024-03-29T14:29:38;16.00;99.90
13494;DHT22;6819;50.886;4.332;2024-03-29T14:32:04;16.40;99.90
13494;DHT22;6819;50.886;4.332;2024-03-29T14:34:30;16.60;99.90
13494;DHT22;6819;50.886;4.332;2024-03-29T14:37:03;16.90;99.90
13494;DHT22;6819;50.886;4.332;2024-03-29T14:39:28;17.30;99.90
13494;DHT22;6819;50.886;4.332;2024-03-29T14:41:54;17.20;99.90
13494;DHT22;6819;50.886;4.332;2024-03-29T14:46:47;16.60;99.90
13494;DHT22;6819;50.886;4.332;2024-03-29T14:49:13;16.50;99.90
13494;DHT22;6819;50.886;4.332;2024-03-29T14:51:40;16.50;99.90
13494;DHT22;6819;50.886;4.332;2024-03-29T14:54:06;16.20;99.90
13494;DHT22;6819;50.886;4.332;2024-03-29T14:56:33;16.30;99.90
13494;DHT22;6819;50.886;4.332;2024-03-29T14:59:04;16.20;99.90
13494;DHT22;6819;50.886;4.332;2024-03-29T15:01:37;16.60;99.90
13494;DHT22;6819;50.886;4.332;2024-03-29T15:04:03;16.50;99.90
13494;DHT22;6819;50.886;4.332;2024-03-29T15:08:55;16.40;99.90
13494;DHT22;6819;50.886;4.332;2024-03-29T15:11:23;15.90;99.90
13494;DHT22;6819;50.886;4.332;2024-03-29T15:13:49;15.70;99.90
13494;DHT22;6819;50.886;4.332;2024-03-29T15:16:16;15.40;99.90
13494;DHT22;6819;50.886;4.332;2024-03-29T15:18:41;15.20;99.90
13494;DHT22;6819;50.886;4.332;2024-03-29T15:21:08;15.10;99.90
13494;DHT22;6819;50.886;4.332;2024-03-29T15:23:35;15.00;99.90
13494;DHT22;6819;50.886;4.332;2024-03-29T15:26:02;15.10;99.90
13494;DHT22;6819;50.886;4.332;2024-03-29T15:28:28;15.00;99.90
13494;DHT22;6819;50.886;4.332;2024-03-29T15:31:14;15.00;99.90
13494;DHT22;6819;50.886;4.332;2024-03-29T15:33:42;15.10;99.90
13494;DHT22;6819;50.886;4.332;2024-03-29T15:36:09;15.10;99.90
13494;DHT22;6819;50.886;4.332;2024-03-29T15:38:36;15.10;99.90
13494;DHT22;6819;50.886;4.332;2024-03-29T15:41:02;14.90;99.90
13494;DHT22;6819;50.886;4.332;2024-03-29T15:43:30;15.10;99.90
13494;DHT22;6819;50.886;4.332;2024-03-29T15:45:56;15.10;99.90
13494;DHT22;6819;50.886;4.332;2024-03-29T15:48:24;14.90;99.90
13494;DHT22;6819;50.886;4.332;2024-03-29T15:50:53;14.80;99.90
13494;DHT22;6819;50.886;4.332;2024-03-29T15:53:19;15.00;99.90
13494;DHT22;6819;50.886;4.332;2024-03-29T15:55:46;15.20;99.90
13494;DHT22;6819;50.886;4.332;2024-03-29T15:58:12;15.20;99.90
13494;DHT22;6819;50.886;4.332;2024-03-29T16:00:38;15.30;99.90
13494;DHT22;6819;50.886;4.332;2024-03-29T16:03:09;15.30;99.90
13494;DHT22;6819;50.886;4.332;2024-03-29T16:05:36;15.40;99.90
13494;DHT22;6819;50.886;4.332;2024-03-29T16:08:02;15.60;99.90
13494;DHT22;6819;50.886;4.332;2024-03-29T16:10:27;15.30;99.90
13494;DHT22;6819;50.886;4.332;2024-03-29T16:12:53;15.40;99.90
13494;DHT22;6819;50.886;4.332;2024-03-29T16:15:19;15.20;99.90
13494;DHT22;6819;50.886;4.332;2024-03-29T16:17:44;15.30;99.90
13494;DHT22;6819;50.886;4.332;2024-03-29T16:20:10;15.20;99.90
13494;DHT22;6819;50.886;4.332;2024-03-29T16:22:36;15.10;99.90
13494;DHT22;6819;50.886;4.332;2024-03-29T16:25:02;15.00;99.90
13494;DHT22;6819;50.886;4.332;2024-03-29T16:27:27;14.90;99.90
13494;DHT22;6819;50.886;4.332;2024-03-29T16:29:53;15.00;99.90
13494;DHT22;6819;50.886;4.332;2024-03-29T16:32:19;15.00;99.90
13494;DHT22;6819;50.886;4.332;2024-03-29T16:34:44;14.90;99.90
13494;DHT22;6819;50.886;4.332;2024-03-29T16:37:10;14.80;99.90
13494;DHT22;6819;50.886;4.332;2024-03-29T16:39:36;14.80;99.90
13494;DHT22;6819;50.886;4.332;2024-03-29T16:42:01;14.60;99.90
13494;DHT22;6819;50.886;4.332;2024-03-29T16:44:28;14.60;99.90
13494;DHT22;6819;50.886;4.332;2024-03-29T16:46:54;14.70;99.90
13494;DHT22;6819;50.886;4.332;2024-03-29T16:49:19;14.70;99.90
13494;DHT22;6819;50.886;4.332;2024-03-29T16:51:46;14.80;99.90
13494;DHT22;6819;50.886;4.332;2024-03-29T16:54:11;14.70;99.90
13494;DHT22;6819;50.886;4.332;2024-03-29T16:56:37;14.60;99.90
13494;DHT22;6819;50.886;4.332;2024-03-29T16:59:03;14.60;99.90
13494;DHT22;6819;50.886;4.332;2024-03-29T17:01:32;14.60;99.90
13494;DHT22;6819;50.886;4.332;2024-03-29T17:03:58;14.50;99.90
13494;DHT22;6819;50.886;4.332;2024-03-29T17:06:24;14.50;99.90
13494;DHT22;6819;50.886;4.332;2024-03-29T17:08:49;14.50;99.90
13494;DHT22;6819;50.886;4.332;2024-03-29T17:11:15;14.60;99.90
13494;DHT22;6819;50.886;4.332;2024-03-29T17:13:41;14.60;99.90
13494;DHT22;6819;50.886;4.332;2024-03-29T17:16:07;14.60;99.90
13494;DHT22;6819;50.886;4.332;2024-03-29T17:18:32;14.60;99.90
13494;DHT22;6819;50.886;4.332;2024-03-29T17:20:58;14.50;99.90
13494;DHT22;6819;50.886;4.332;2024-03-29T17:23:24;14.40;99.90
13494;DHT22;6819;50.886;4.332;2024-03-29T17:25:49;14.40;99.90
13494;DHT22;6819;50.886;4.332;2024-03-29T17:28:15;14.40;99.90
13494;DHT22;6819;50.886;4.332;2024-03-29T17:30:41;14.40;99.90
13494;DHT22;6819;50.886;4.332;2024-03-29T17:33:06;14.30;99.90
13494;DHT22;6819;50.886;4.332;2024-03-29T17:35:32;14.30;99.90
13494;DHT22;6819;50.886;4.332;2024-03-29T17:37:58;14.30;99.90
13494;DHT22;6819;50.886;4.332;2024-03-29T17:40:28;14.20;99.90
13494;DHT22;6819;50.886;4.332;2024-03-29T17:42:54;14.20;99.90
13494;DHT22;6819;50.886;4.332;2024-03-29T17:45:21;14.20;99.90
13494;DHT22;6819;50.886;4.332;2024-03-29T17:47:48;14.20;99.90
13494;DHT22;6819;50.886;4.332;2024-03-29T17:50:14;14.20;99.90
13494;DHT22;6819;50.886;4.332;2024-03-29T17:52:40;14.20;99.90
13494;DHT22;6819;50.886;4.332;2024-03-29T17:55:06;14.20;99.90
13494;DHT22;6819;50.886;4.332;2024-03-29T17:57:31;14.20;99.90
13494;DHT22;6819;50.886;4.332;2024-03-29T17:59:57;14.20;99.90
13494;DHT22;6819;50.886;4.332;2024-03-29T18:02:24;14.10;99.90
13494;DHT22;6819;50.886;4.332;2024-03-29T18:04:50;14.10;99.90
13494;DHT22;6819;50.886;4.332;2024-03-29T18:07:16;14.10;99.90
13494;DHT22;6819;50.886;4.332;2024-03-29T18:09:41;14.10;99.90
13494;DHT22;6819;50.886;4.332;2024-03-29T18:12:08;14.00;99.90
13494;DHT22;6819;50.886;4.332;2024-03-29T18:14:34;14.00;99.90
13494;DHT22;6819;50.886;4.332;2024-03-29T18:17:00;14.00;99.90
13494;DHT22;6819;50.886;4.332;2024-03-29T18:19:26;14.00;99.90
13494;DHT22;6819;50.886;4.332;2024-03-29T18:21:52;14.00;99.90
13494;DHT22;6819;50.886;4.332;2024-03-29T18:24:20;13.90;99.90
13494;DHT22;6819;50.886;4.332;2024-03-29T18:26:45;13.90;99.90
13494;DHT22;6819;50.886;4.332;2024-03-29T18:29:12;13.90;99.90
13494;DHT22;6819;50.886;4.332;2024-03-29T18:31:37;13.90;99.90
13494;DHT22;6819;50.886;4.332;2024-03-29T18:34:03;13.90;99.90
13494;DHT22;6819;50.886;4.332;2024-03-29T18:36:29;13.90;99.90
13494;DHT22;6819;50.886;4.332;2024-03-29T18:38:55;13.90;99.90
13494;DHT22;6819;50.886;4.332;2024-03-29T18:41:21;13.80;99.90
13494;DHT22;6819;50.886;4.332;2024-03-29T18:43:49;13.80;99.90
13494;DHT22;6819;50.886;4.332;2024-03-29T18:46:15;13.80;99.90
13494;DHT22;6819;50.886;4.332;2024-03-29T18:48:43;13.80;99.90
13494;DHT22;6819;50.886;4.332;2024-03-29T18:51:09;13.80;99.90
13494;DHT22;6819;50.886;4.332;2024-03-29T18:53:35;13.80;99.90
13494;DHT22;6819;50.886;4.332;2024-03-29T18:56:02;13.80;99.90
13494;DHT22;6819;50.886;4.332;2024-03-29T18:58:29;13.80;99.90
13494;DHT22;6819;50.886;4.332;2024-03-29T19:00:55;13.80;99.90
13494;DHT22;6819;50.886;4.332;2024-03-29T19:03:23;13.80;99.90
13494;DHT22;6819;50.886;4.332;2024-03-29T19:05:49;13.70;99.90
13494;DHT22;6819;50.886;4.332;2024-03-29T19:08:16;13.70;99.90
13494;DHT22;6819;50.886;4.332;2024-03-29T19:10:43;13.60;99.90
13494;DHT22;6819;50.886;4.332;2024-03-29T19:13:09;13.60;99.90
13494;DHT22;6819;50.886;4.332;2024-03-29T19:15:36;13.60;99.90
13494;DHT22;6819;50.886;4.332;2024-03-29T19:18:03;13.50;99.90
13494;DHT22;6819;50.886;4.332;2024-03-29T19:20:29;13.50;99.90
13494;DHT22;6819;50.886;4.332;2024-03-29T19:22:55;13.50;99.90
13494;DHT22;6819;50.886;4.332;2024-03-29T19:25:21;13.40;99.90
13494;DHT22;6819;50.886;4.332;2024-03-29T19:27:47;13.40;99.90
13494;DHT22;6819;50.886;4.332;2024-03-29T19:30:13;13.40;99.90
13494;DHT22;6819;50.886;4.332;2024-03-29T19:32:39;13.30;99.90
13494;DHT22;6819;50.886;4.332;2024-03-29T19:35:05;13.30;99.90
13494;DHT22;6819;50.886;4.332;2024-03-29T19:37:30;13.30;99.90
13494;DHT22;6819;50.886;4.332;2024-03-29T19:39:57;13.30;99.90
13494;DHT22;6819;50.886;4.332;2024-03-29T19:42:23;13.20;99.90
13494;DHT22;6819;50.886;4.332;2024-03-29T19:44:49;13.10;99.90
13494;DHT22;6819;50.886;4.332;2024-03-29T19:47:15;13.10;99.90
13494;DHT22;6819;50.886;4.332;2024-03-29T19:49:40;13.10;99.90
13494;DHT22;6819;50.886;4.332;2024-03-29T19:52:06;13.10;99.90
13494;DHT22;6819;50.886;4.332;2024-03-29T19:54:32;13.10;99.90
13494;DHT22;6819;50.886;4.332;2024-03-29T19:56:58;13.10;99.90
13494;DHT22;6819;50.886;4.332;2024-03-29T19:59:24;13.10;99.90
13494;DHT22;6819;50.886;4.332;2024-03-29T20:01:49;13.00;99.90
13494;DHT22;6819;50.886;4.332;2024-03-29T20:04:16;13.10;99.90
13494;DHT22;6819;50.886;4.332;2024-03-29T20:06:43;13.10;99.90
13494;DHT22;6819;50.886;4.332;2024-03-29T20:09:09;13.00;99.90
13494;DHT22;6819;50.886;4.332;2024-03-29T20:11:36;13.00;99.90
13494;DHT22;6819;50.886;4.332;2024-03-29T20:14:03;13.00;99.90
13494;DHT22;6819;50.886;4.332;2024-03-29T20:16:29;13.00;99.90
13494;DHT22;6819;50.886;4.332;2024-03-29T20:18:54;12.90;99.90
13494;DHT22;6819;50.886;4.332;2024-03-29T20:21:25;12.80;99.90
13494;DHT22;6819;50.886;4.332;2024-03-29T20:23:51;12.80;99.90
13494;DHT22;6819;50.886;4.332;2024-03-29T20:26:17;12.80;99.90
13494;DHT22;6819;50.886;4.332;2024-03-29T20:28:42;12.70;99.90
13494;DHT22;6819;50.886;4.332;2024-03-29T20:31:08;12.70;99.90
13494;DHT22;6819;50.886;4.332;2024-03-29T20:33:34;12.70;99.90
13494;DHT22;6819;50.886;4.332;2024-03-29T20:36:00;12.70;99.90
13494;DHT22;6819;50.886;4.332;2024-03-29T20:38:25;12.60;99.90
13494;DHT22;6819;50.886;4.332;2024-03-29T20:40:52;12.70;99.90
13494;DHT22;6819;50.886;4.332;2024-03-29T20:43:18;12.60;99.90
13494;DHT22;6819;50.886;4.332;2024-03-29T20:45:44;12.50;99.90
13494;DHT22;6819;50.886;4.332;2024-03-29T20:48:10;12.50;99.90
13494;DHT22;6819;50.886;4.332;2024-03-29T20:50:36;12.50;99.90
13494;DHT22;6819;50.886;4.332;2024-03-29T20:53:01;12.40;99.90
13494;DHT22;6819;50.886;4.332;2024-03-29T20:55:28;12.40;99.90
13494;DHT22;6819;50.886;4.332;2024-03-29T20:57:54;12.40;99.90
13494;DHT22;6819;50.886;4.332;2024-03-29T21:00:22;12.30;99.90
13494;DHT22;6819;50.886;4.332;2024-03-29T21:02:48;12.40;99.90
13494;DHT22;6819;50.886;4.332;2024-03-29T21:05:32;12.30;99.90
13494;DHT22;6819;50.886;4.332;2024-03-29T21:08:04;12.30;99.90
13494;DHT22;6819;50.886;4.332;2024-03-29T21:10:33;12.20;99.90
13494;DHT22;6819;50.886;4.332;2024-03-29T21:13:00;12.20;99.90
13494;DHT22;6819;50.886;4.332;2024-03-29T21:15:27;12.20;99.90
13494;DHT22;6819;50.886;4.332;2024-03-29T21:17:53;12.20;99.90
13494;DHT22;6819;50.886;4.332;2024-03-29T21:20:27;12.10;99.90
13494;DHT22;6819;50.886;4.332;2024-03-29T21:22:58;12.10;99.90
13494;DHT22;6819;50.886;4.332;2024-03-29T21:25:24;12.10;99.90
13494;DHT22;6819;50.886;4.332;2024-03-29T21:27:52;12.10;99.90
13494;DHT22;6819;50.886;4.332;2024-03-29T21:30:20;12.00;99.90
13494;DHT22;6819;50.886;4.332;2024-03-29T21:32:47;12.00;99.90
13494;DHT22;6819;50.886;4.332;2024-03-29T21:35:15;12.00;99.90
13494;DHT22;6819;50.886;4.332;2024-03-29T21:37:42;12.00;99.90
13494;DHT22;6819;50.886;4.332;2024-03-29T21:40:08;11.90;99.90
13494;DHT22;6819;50.886;4.332;2024-03-29T21:42:35;11.90;99.90
13494;DHT22;6819;50.886;4.332;2024-03-29T21:45:01;11.90;99.90
13494;DHT22;6819;50.886;4.332;2024-03-29T21:47:27;11.90;99.90
13494;DHT22;6819;50.886;4.332;2024-03-29T21:49:54;11.90;99.90
13494;DHT22;6819;50.886;4.332;2024-03-29T21:52:20;11.90;99.90
13494;DHT22;6819;50.886;4.332;2024-03-29T21:54:46;11.90;99.90
13494;DHT22;6819;50.886;4.332;2024-03-29T21:57:12;11.80;99.90
13494;DHT22;6819;50.886;4.332;2024-03-29T21:59:39;11.80;99.90
13494;DHT22;6819;50.886;4.332;2024-03-29T22:02:05;11.80;99.90
13494;DHT22;6819;50.886;4.332;2024-03-29T22:04:32;11.80;99.90
13494;DHT22;6819;50.886;4.332;2024-03-29T22:07:02;11.80;99.90
13494;DHT22;6819;50.886;4.332;2024-03-29T22:09:29;11.70;99.90
13494;DHT22;6819;50.886;4.332;2024-03-29T22:11:54;11.70;99.90
13494;DHT22;6819;50.886;4.332;2024-03-29T22:14:21;11.70;99.90
13494;DHT22;6819;50.886;4.332;2024-03-29T22:16:48;11.70;99.90
13494;DHT22;6819;50.886;4.332;2024-03-29T22:19:14;11.70;99.90
13494;DHT22;6819;50.886;4.332;2024-03-29T22:21:40;11.70;99.90
13494;DHT22;6819;50.886;4.332;2024-03-29T22:24:06;11.60;99.90
13494;DHT22;6819;50.886;4.332;2024-03-29T22:26:33;11.50;99.90
13494;DHT22;6819;50.886;4.332;2024-03-29T22:28:59;11.50;99.90
13494;DHT22;6819;50.886;4.332;2024-03-29T22:31:25;11.40;99.90
13494;DHT22;6819;50.886;4.332;2024-03-29T22:33:51;11.50;99.90
13494;DHT22;6819;50.886;4.332;2024-03-29T22:36:18;11.40;99.90
13494;DHT22;6819;50.886;4.332;2024-03-29T22:38:44;11.30;99.90
13494;DHT22;6819;50.886;4.332;2024-03-29T22:41:10;11.30;99.90
13494;DHT22;6819;50.886;4.332;2024-03-29T22:43:37;11.30;99.90
13494;DHT22;6819;50.886;4.332;2024-03-29T22:46:03;11.30;99.90
13494;DHT22;6819;50.886;4.332;2024-03-29T22:48:30;11.20;99.90
13494;DHT22;6819;50.886;4.332;2024-03-29T22:50:55;11.20;99.90
13494;DHT22;6819;50.886;4.332;2024-03-29T22:53:22;11.20;99.90
13494;DHT22;6819;50.886;4.332;2024-03-29T22:55:48;11.20;99.90
13494;DHT22;6819;50.886;4.332;2024-03-29T22:58:14;11.20;99.90
13494;DHT22;6819;50.886;4.332;2024-03-29T23:00:39;11.20;99.90
13494;DHT22;6819;50.886;4.332;2024-03-29T23:03:05;11.20;99.90
13494;DHT22;6819;50.886;4.332;2024-03-29T23:05:31;11.10;99.90
13494;DHT22;6819;50.886;4.332;2024-03-29T23:07:58;11.10;99.90
13494;DHT22;6819;50.886;4.332;2024-03-29T23:10:24;11.10;99.90
13494;DHT22;6819;50.886;4.332;2024-03-29T23:12:50;11.00;99.90
13494;DHT22;6819;50.886;4.332;2024-03-29T23:15:17;11.10;99.90
13494;DHT22;6819;50.886;4.332;2024-03-29T23:17:43;11.00;99.90
13494;DHT22;6819;50.886;4.332;2024-03-29T23:20:09;11.00;99.90
13494;DHT22;6819;50.886;4.332;2024-03-29T23:22:35;10.90;99.90
13494;DHT22;6819;50.886;4.332;2024-03-29T23:25:03;10.90;99.90
13494;DHT22;6819;50.886;4.332;2024-03-29T23:27:30;10.90;99.90
13494;DHT22;6819;50.886;4.332;2024-03-29T23:29:56;10.90;99.90
13494;DHT22;6819;50.886;4.332;2024-03-29T23:32:21;10.80;99.90
13494;DHT22;6819;50.886;4.332;2024-03-29T23:34:47;10.80;99.90
13494;DHT22;6819;50.886;4.332;2024-03-29T23:37:13;10.90;99.90
13494;DHT22;6819;50.886;4.332;2024-03-29T23:39:39;10.80;99.90
13494;DHT22;6819;50.886;4.332;2024-03-29T23:42:06;10.80;99.90
13494;DHT22;6819;50.886;4.332;2024-03-29T23:44:31;10.80;99.90
13494;DHT22;6819;50.886;4.332;2024-03-29T23:46:57;10.80;99.90
13494;DHT22;6819;50.886;4.332;2024-03-29T23:49:23;10.70;99.90
13494;DHT22;6819;50.886;4.332;2024-03-29T23:51:48;10.70;99.90
13494;DHT22;6819;50.886;4.332;2024-03-29T23:54:14;10.70;99.90
13494;DHT22;6819;50.886;4.332;2024-03-29T23:56:40;10.70;99.90
13494;DHT22;6819;50.886;4.332;2024-03-29T23:59:05;10.70;99.90
